Time;durP1;ratioP1;P1;durP2;ratioP2;P2;SDS_P1;SDS_P2;PMS_P1;PMS_P2;Temp;Humidity;BMP_temperature;BMP_pressure;BME280_temperature;BME280_humidity;BME280_pressure;Samples;Min_cycle;Max_cycle;Signal;HPM_P1;HPM_P2
2022/08/28 00:00:27;;;;;;;26.38;17.92;;;;;;;19.85;56.05;100190.91;5033751;28;20045;-73
2022/08/28 00:02:55;;;;;;;26.90;18.67;;;;;;;19.93;56.22;100197.41;5017963;28;20085;-74
2022/08/28 00:05:24;;;;;;;32.13;18.30;;;;;;;19.83;56.03;100200.25;5017360;28;20041;-74
2022/08/28 00:07:50;;;;;;;32.67;18.60;;;;;;;19.80;56.57;100206.84;5017097;28;20570;-74
2022/08/28 00:10:19;;;;;;;29.25;18.50;;;;;;;19.75;56.59;100208.34;5033535;28;20056;-74
2022/08/28 00:12:46;;;;;;;23.85;17.67;;;;;;;19.65;57.35;100209.28;5017015;28;20037;-74
2022/08/28 00:15:16;;;;;;;27.48;19.33;;;;;;;19.59;57.44;100209.03;5017013;28;20369;-75
2022/08/28 00:17:42;;;;;;;29.33;21.55;;;;;;;19.58;57.33;100213.63;5016752;28;20432;-74
2022/08/28 00:20:10;;;;;;;28.73;22.25;;;;;;;19.50;57.69;100216.28;5033534;28;20041;-75
2022/08/28 00:22:37;;;;;;;38.83;23.40;;;;;;;19.36;57.95;100209.56;5033430;28;20045;-75
2022/08/28 00:25:09;;;;;;;34.25;22.30;;;;;;;19.23;59.03;100203.72;5033240;28;20037;-75
2022/08/28 00:27:51;;;;;;;37.97;23.38;;;;;;;19.13;58.98;100202.97;5000604;28;20053;-75
2022/08/28 00:30:29;;;;;;;36.63;25.00;;;;;;;19.16;59.17;100211.63;5016979;28;20045;-75
2022/08/28 00:32:59;;;;;;;37.00;27.45;;;;;;;19.02;59.85;100208.63;5016958;28;20048;-76
2022/08/28 00:35:26;;;;;;;43.88;31.23;;;;;;;19.00;60.19;100219.63;5033674;28;20044;-75
2022/08/28 00:37:53;;;;;;;45.80;32.58;;;;;;;18.87;60.48;100217.28;5016854;28;20095;-75
2022/08/28 00:40:23;;;;;;;42.40;33.55;;;;;;;18.82;60.34;100219.63;5034448;28;20041;-75
2022/08/28 00:42:50;;;;;;;40.95;29.88;;;;;;;18.77;60.95;100218.38;5000318;28;20048;-75
2022/08/28 00:45:17;;;;;;;38.25;29.00;;;;;;;18.68;61.24;100210.13;5033266;28;20079;-76
2022/08/28 00:47:45;;;;;;;38.63;31.52;;;;;;;18.65;61.27;100209.59;5016674;28;20038;-76
2022/08/28 00:50:16;;;;;;;41.72;33.75;;;;;;;18.57;61.60;100201.38;5034064;28;20072;-74
2022/08/28 00:52:47;;;;;;;49.30;37.00;;;;;;;18.62;61.92;100210.78;5034149;28;20045;-74
2022/08/28 00:55:19;;;;;;;46.13;32.67;;;;;;;18.61;61.96;100217.16;5032689;28;20057;-75
2022/08/28 00:57:52;;;;;;;43.15;31.95;;;;;;;18.60;61.83;100212.75;4999972;28;20073;-74
2022/08/28 01:00:28;;;;;;;48.75;31.33;;;;;;;18.58;62.18;100217.50;5032978;28;20516;-75
2022/08/28 01:02:54;;;;;;;38.90;28.65;;;;;;;18.52;62.52;100226.22;5033952;28;20046;-75
2022/08/28 01:05:20;;;;;;;46.05;30.58;;;;;;;18.36;63.15;100213.34;5032583;28;20133;-76
2022/08/28 01:07:48;;;;;;;39.50;31.63;;;;;;;18.43;63.04;100221.72;5016118;28;20041;-74
2022/08/28 01:10:19;;;;;;;45.67;27.65;;;;;;;18.45;62.99;100236.78;5016103;28;20053;-78
2022/08/28 01:12:46;;;;;;;34.22;24.30;;;;;;;18.53;62.65;100225.22;4999985;28;20111;-77
2022/08/28 01:15:16;;;;;;;45.08;29.17;;;;;;;18.55;62.76;100217.78;5032573;28;20140;-77
2022/08/28 01:17:47;;;;;;;46.95;35.15;;;;;;;18.47;63.22;100225.84;5032533;28;20045;-77
2022/08/28 01:20:19;;;;;;;49.22;37.35;;;;;;;18.48;62.97;100229.38;5015983;28;20142;-77
2022/08/28 01:23:18;;;;;;;73.55;65.55;;;;;;;18.45;63.20;100222.41;5015843;28;20052;-77
2022/08/28 01:25:44;;;;;;;79.18;70.50;;;;;;;18.37;63.58;100219.63;5016247;28;20041;-76
2022/08/28 01:28:12;;;;;;;61.78;49.90;;;;;;;18.45;63.60;100231.38;5015922;28;20087;-76
2022/08/28 01:30:44;;;;;;;53.08;47.22;;;;;;;18.50;63.66;100238.19;5015495;28;20493;-75
2022/08/28 01:33:10;;;;;;;47.10;38.95;;;;;;;18.49;63.68;100237.34;5031972;28;20045;-77
2022/08/28 01:35:39;;;;;;;45.63;39.35;;;;;;;18.48;63.78;100234.81;4999119;28;20045;-77
2022/08/28 01:38:05;;;;;;;44.50;38.83;;;;;;;18.50;63.27;100230.91;4999227;28;20144;-76
2022/08/28 01:40:39;;;;;;;64.82;57.75;;;;;;;18.66;62.80;100244.66;5031963;28;20132;-76
2022/08/28 01:43:10;;;;;;;58.35;39.22;;;;;;;18.66;62.78;100228.41;5033950;28;20049;-76
2022/08/28 01:45:36;;;;;;;54.28;43.05;;;;;;;18.76;62.36;100233.78;4999124;28;20060;-76
2022/08/28 01:48:05;;;;;;;57.53;43.95;;;;;;;18.90;62.30;100251.34;5030402;28;20440;-77
2022/08/28 01:50:32;;;;;;;49.83;39.03;;;;;;;18.99;61.71;100245.00;5015545;28;20045;-77
2022/08/28 01:52:59;;;;;;;48.70;37.55;;;;;;;19.12;61.49;100245.47;5031890;28;20049;-77
2022/08/28 01:55:25;;;;;;;40.97;34.67;;;;;;;19.14;61.09;100242.59;5032720;28;20049;-76
2022/08/28 01:57:52;;;;;;;41.15;33.00;;;;;;;19.30;60.90;100252.75;4998916;28;20041;-77
2022/08/28 02:00:19;;;;;;;47.75;32.50;;;;;;;19.16;61.18;100252.28;5015404;28;20127;-77
2022/08/28 02:02:47;;;;;;;40.00;29.80;;;;;;;18.97;62.02;100255.16;5031659;28;20136;-76
2022/08/28 02:05:14;;;;;;;43.92;29.88;;;;;;;18.84;62.28;100251.97;5031678;28;20045;-76
2022/08/28 02:07:39;;;;;;;37.95;27.02;;;;;;;18.70;62.80;100256.03;5031795;28;20063;-76
2022/08/28 02:10:07;;;;;;;34.10;25.20;;;;;;;18.67;62.79;100261.75;5032830;28;20497;-75
2022/08/28 02:12:34;;;;;;;47.75;26.67;;;;;;;18.58;62.83;100263.53;5015269;28;20411;-76
2022/08/28 02:15:01;;;;;;;52.35;24.65;;;;;;;18.52;63.07;100263.28;5032697;28;20132;-76
2022/08/28 02:17:26;;;;;;;42.75;27.67;;;;;;;18.43;63.43;100267.75;5032420;28;20056;-76
2022/08/28 02:19:52;;;;;;;49.35;34.28;;;;;;;18.45;63.76;100269.28;5014935;28;20042;-77
2022/08/28 02:22:18;;;;;;;49.45;29.90;;;;;;;18.47;63.93;100273.69;5015324;28;20037;-76
2022/08/28 02:24:45;;;;;;;56.85;28.67;;;;;;;18.39;64.01;100274.44;5031530;28;20404;-75
2022/08/28 02:27:11;;;;;;;50.20;28.02;;;;;;;18.37;64.08;100271.91;4998810;28;20049;-76
2022/08/28 02:29:37;;;;;;;44.20;27.90;;;;;;;18.45;63.79;100271.13;5032579;28;20040;-75
2022/08/28 02:32:04;;;;;;;50.38;29.25;;;;;;;18.57;63.20;100271.78;5031205;28;20488;-78
2022/08/28 02:34:32;;;;;;;38.28;26.95;;;;;;;18.57;63.42;100267.22;5014748;28;20052;-75
2022/08/28 02:36:58;;;;;;;36.97;26.20;;;;;;;18.60;63.07;100275.03;5031081;28;20049;-75
2022/08/28 02:39:24;;;;;;;40.85;26.98;;;;;;;18.76;62.93;100276.25;5014921;28;20444;-75
2022/08/28 02:41:50;;;;;;;46.83;27.30;;;;;;;18.83;62.80;100271.94;5031333;28;20095;-76
2022/08/28 02:44:16;;;;;;;69.15;27.33;;;;;;;18.82;62.42;100254.00;5014787;28;20500;-75
2022/08/28 02:46:42;;;;;;;69.22;28.90;;;;;;;18.84;62.56;100268.22;5032728;28;20045;-75
2022/08/28 02:49:08;;;;;;;70.05;27.63;;;;;;;18.87;62.59;100274.19;5015278;28;20054;-76
2022/08/28 02:51:34;;;;;;;60.28;28.70;;;;;;;18.84;62.68;100268.22;5014912;28;20049;-75
2022/08/28 02:54:00;;;;;;;58.03;28.60;;;;;;;18.92;62.23;100276.44;5032138;28;20428;-76
2022/08/28 02:56:27;;;;;;;58.55;27.90;;;;;;;19.17;61.52;100275.66;5032335;28;20041;-74
2022/08/28 02:58:53;;;;;;;59.83;29.20;;;;;;;19.14;61.74;100278.72;5015153;28;20037;-73
2022/08/28 03:01:20;;;;;;;51.45;27.60;;;;;;;19.25;61.31;100282.16;5018440;28;20492;-74
2022/08/28 03:03:45;;;;;;;59.05;27.98;;;;;;;19.32;61.16;100275.97;5018094;28;20095;-75
2022/08/28 03:06:12;;;;;;;68.65;27.35;;;;;;;19.42;60.98;100279.44;5018214;28;20041;-76
2022/08/28 03:08:40;;;;;;;63.80;27.65;;;;;;;19.38;60.86;100260.94;5018188;28;20076;-76
2022/08/28 03:11:06;;;;;;;58.72;26.52;;;;;;;19.61;60.65;100278.41;5034576;28;20489;-75
2022/08/28 03:13:32;;;;;;;62.70;28.40;;;;;;;19.69;60.43;100287.66;5034652;28;20044;-75
2022/08/28 03:15:58;;;;;;;62.53;28.02;;;;;;;19.70;60.43;100270.34;5017886;28;20077;-77
2022/08/28 03:18:28;;;;;;;69.22;26.48;;;;;;;19.63;60.58;100281.84;5017887;28;20095;-76
2022/08/28 03:20:55;;;;;;;76.05;25.40;;;;;;;19.56;60.76;100277.19;5034664;28;20052;-76
2022/08/28 03:23:27;;;;;;;70.22;24.23;;;;;;;19.75;60.33;100284.31;5018109;28;20042;-75
2022/08/28 03:26:00;;;;;;;66.57;24.30;;;;;;;19.88;59.36;100285.56;5035759;28;20049;-77
2022/08/28 03:28:29;;;;;;;59.92;24.02;;;;;;;19.82;59.19;100290.78;5034756;28;20041;-77
2022/08/28 03:30:56;;;;;;;66.35;23.80;;;;;;;19.88;59.26;100285.56;5018337;28;20076;-76
2022/08/28 03:33:23;;;;;;;53.97;22.63;;;;;;;20.02;58.90;100277.88;5034363;28;20119;-76
2022/08/28 03:35:50;;;;;;;65.35;25.25;;;;;;;20.07;58.60;100279.06;5001398;28;20041;-77
2022/08/28 03:38:16;;;;;;;61.65;24.40;;;;;;;20.15;58.42;100280.97;5035240;28;20041;-81
2022/08/28 03:40:44;;;;;;;55.72;23.65;;;;;;;20.16;58.41;100276.38;5018599;28;20409;-75
2022/08/28 03:43:12;;;;;;;50.35;23.13;;;;;;;20.32;58.52;100287.34;5035513;28;20106;-75
2022/08/28 03:45:39;;;;;;;47.63;24.13;;;;;;;20.33;58.13;100265.44;5017840;28;20110;-79
2022/08/28 03:48:07;;;;;;;40.53;24.02;;;;;;;20.53;57.86;100273.38;5017724;28;20076;-79
2022/08/28 03:50:34;;;;;;;45.30;22.02;;;;;;;20.80;57.05;100280.44;5017588;28;20041;-79
2022/08/28 03:53:00;;;;;;;47.33;21.45;;;;;;;20.93;57.06;100272.63;5017501;28;20045;-79
2022/08/28 03:55:26;;;;;;;43.72;20.27;;;;;;;21.22;56.59;100285.75;5034973;28;20053;-75
2022/08/28 03:57:52;;;;;;;39.70;21.58;;;;;;;21.48;55.91;100282.06;5036463;28;20405;-75
2022/08/28 04:00:19;;;;;;;43.55;21.55;;;;;;;21.71;55.56;100282.22;5033420;28;20045;-75
2022/08/28 04:02:45;;;;;;;43.83;21.85;;;;;;;21.92;54.68;100274.34;5034916;28;20041;-77
2022/08/28 04:05:12;;;;;;;49.20;21.75;;;;;;;22.19;53.92;100278.56;5016992;28;20104;-77
2022/08/28 04:07:39;;;;;;;43.38;21.10;;;;;;;22.38;53.51;100277.31;5035081;28;20056;-76
2022/08/28 04:10:05;;;;;;;47.85;21.23;;;;;;;22.50;53.21;100267.72;5032396;28;20501;-76
2022/08/28 04:12:31;;;;;;;45.97;22.20;;;;;;;22.69;52.87;100279.22;5016123;28;20037;-75
2022/08/28 04:14:57;;;;;;;45.17;20.55;;;;;;;22.92;52.29;100282.84;5034190;28;20049;-75
2022/08/28 04:17:24;;;;;;;53.13;23.17;;;;;;;23.08;51.74;100284.63;5016391;28;20585;-75
2022/08/28 04:19:53;;;;;;;48.30;23.15;;;;;;;23.28;51.47;100284.97;5060651;28;20041;-76
2022/08/28 04:22:19;;;;;;;40.72;22.48;;;;;;;23.41;51.26;100279.78;5016175;28;20045;-74
2022/08/28 04:24:45;;;;;;;39.75;21.88;;;;;;;23.51;50.58;100269.47;5033515;28;20049;-76
2022/08/28 04:27:11;;;;;;;50.45;21.77;;;;;;;23.65;50.68;100269.66;5034512;28;20463;-76
2022/08/28 04:29:36;;;;;;;58.00;22.30;;;;;;;23.87;50.04;100278.88;5032876;28;20041;-75
2022/08/28 04:32:02;;;;;;;43.08;21.58;;;;;;;23.99;49.69;100271.91;5032934;28;20493;-76
2022/08/28 04:34:28;;;;;;;43.33;22.20;;;;;;;23.88;49.51;100272.38;5033034;28;20091;-82
2022/08/28 04:36:54;;;;;;;41.40;21.40;;;;;;;24.02;49.59;100277.00;5032802;28;20033;-76
2022/08/28 04:39:20;;;;;;;43.88;21.38;;;;;;;24.17;48.96;100275.13;5032135;28;20052;-75
2022/08/28 04:41:48;;;;;;;52.55;22.58;;;;;;;24.04;48.81;100274.09;5033591;28;20483;-76
2022/08/28 04:44:14;;;;;;;43.28;22.92;;;;;;;23.87;49.46;100273.41;5033842;28;20492;-78
2022/08/28 04:46:40;;;;;;;62.75;24.25;;;;;;;23.89;49.35;100274.94;5016029;28;20139;-75
2022/08/28 04:49:06;;;;;;;66.07;27.35;;;;;;;23.78;49.56;100269.91;5033617;28;20044;-75
2022/08/28 04:51:32;;;;;;;86.70;30.02;;;;;;;23.65;49.54;100275.13;5032423;28;20136;-75
2022/08/28 04:53:59;;;;;;;83.93;30.60;;;;;;;23.56;49.86;100276.25;5015409;28;20053;-75
2022/08/28 04:56:25;;;;;;;102.72;30.42;;;;;;;23.61;49.66;100273.78;5031891;28;20053;-77
2022/08/28 04:58:51;;;;;;;111.65;31.63;;;;;;;23.65;49.40;100269.66;5033386;28;20156;-75
2022/08/28 05:01:20;;;;;;;112.82;32.10;;;;;;;23.70;48.73;100259.94;5033628;28;20488;-78
2022/08/28 05:03:47;;;;;;;121.80;30.25;;;;;;;23.64;48.86;100268.81;4999052;28;20102;-76
2022/08/28 05:06:15;;;;;;;135.65;33.53;;;;;;;23.79;48.81;100268.88;5032640;28;20045;-89
2022/08/28 05:08:41;;;;;;;104.20;29.95;;;;;;;23.95;47.91;100271.44;5031408;28;20492;-76
2022/08/28 05:11:18;;;;;;;127.85;32.42;;;;;;;24.01;47.88;100269.00;5031856;28;20037;-77
2022/08/28 05:13:44;;;;;;;124.75;31.73;;;;;;;24.26;47.74;100270.44;4998893;28;20125;-75
2022/08/28 05:16:10;;;;;;;106.38;29.90;;;;;;;24.34;46.56;100259.41;5032219;28;20064;-75
2022/08/28 05:18:36;;;;;;;133.55;31.13;;;;;;;24.34;46.53;100267.59;5032397;28;20045;-84
2022/08/28 05:21:03;;;;;;;130.02;29.73;;;;;;;24.43;46.03;100269.19;5015831;28;20103;-84
2022/08/28 05:23:29;;;;;;;122.90;29.52;;;;;;;24.41;46.44;100263.09;4998209;28;20172;-85
2022/08/28 05:25:55;;;;;;;108.45;29.58;;;;;;;24.43;46.66;100273.81;5015893;28;20045;-76
2022/08/28 05:28:23;;;;;;;94.22;30.45;;;;;;;24.58;46.67;100271.06;5033007;28;20038;-76
2022/08/28 05:30:50;;;;;;;137.52;32.78;;;;;;;24.71;46.23;100271.22;5031820;28;20045;-76
2022/08/28 05:33:16;;;;;;;122.97;31.00;;;;;;;24.99;46.00;100252.19;5031354;28;20424;-76
2022/08/28 05:35:45;;;;;;;129.07;30.08;;;;;;;25.11;44.94;100271.72;5032378;28;20128;-76
2022/08/28 05:38:13;;;;;;;120.60;30.20;;;;;;;25.10;45.12;100270.03;4998576;28;20516;-76
2022/08/28 05:40:44;;;;;;;143.32;31.30;;;;;;;25.19;44.94;100268.84;5031394;28;20536;-76
2022/08/28 05:43:12;;;;;;;134.10;32.70;;;;;;;25.13;44.81;100264.16;5031618;28;20049;-76
2022/08/28 05:45:38;;;;;;;148.60;34.95;;;;;;;25.21;44.70;100265.94;5014881;28;20515;-76
2022/08/28 05:48:04;;;;;;;135.02;32.67;;;;;;;25.46;44.75;100264.44;5033412;28;20055;-75
2022/08/28 05:50:30;;;;;;;168.63;34.50;;;;;;;25.81;44.54;100261.84;5051592;28;20041;-75
2022/08/28 05:52:56;;;;;;;131.77;32.08;;;;;;;25.93;43.73;100271.19;5052420;28;20040;-77
2022/08/28 05:55:22;;;;;;;143.68;34.10;;;;;;;26.15;43.55;100253.63;5052934;28;21087;-77
2022/08/28 05:57:48;;;;;;;137.70;32.65;;;;;;;26.26;43.07;100259.59;5051655;28;20102;-76
2022/08/28 06:00:14;;;;;;;138.50;32.50;;;;;;;26.55;43.04;100247.50;5035877;28;20045;-77
2022/08/28 06:02:40;;;;;;;166.25;34.40;;;;;;;26.94;42.76;100256.94;5035476;28;20044;-78
2022/08/28 06:05:08;;;;;;;168.32;36.63;;;;;;;27.08;42.08;100245.78;5032685;28;20530;-75
2022/08/28 06:07:34;;;;;;;136.25;35.85;;;;;;;26.87;42.06;100240.44;5031570;28;20500;-76
2022/08/28 06:10:01;;;;;;;158.98;35.15;;;;;;;26.90;42.05;100241.94;5031533;28;20049;-77
2022/08/28 06:12:27;;;;;;;159.50;36.55;;;;;;;27.20;41.81;100251.53;5031245;28;20132;-76
2022/08/28 06:14:53;;;;;;;171.43;35.92;;;;;;;27.36;40.74;100228.31;5031661;28;20037;-76
2022/08/28 06:17:19;;;;;;;137.57;34.33;;;;;;;27.49;40.45;100249.41;5029833;28;20041;-76
2022/08/28 06:19:45;;;;;;;149.20;32.90;;;;;;;27.53;40.34;100246.06;5051331;28;20052;-76
2022/08/28 06:22:13;;;;;;;118.22;29.90;;;;;;;27.86;39.65;100233.38;5034381;28;20064;-75
2022/08/28 06:24:39;;;;;;;136.07;29.27;;;;;;;27.74;39.19;100239.53;5051760;28;20049;-76
2022/08/28 06:27:05;;;;;;;105.18;26.35;;;;;;;27.62;38.57;100246.69;5051092;28;20364;-76
2022/08/28 06:29:31;;;;;;;108.80;25.63;;;;;;;27.41;39.08;100235.91;5052522;28;20041;-76
2022/08/28 06:32:00;;;;;;;100.97;25.85;;;;;;;27.51;38.95;100236.34;5050947;28;20044;-77
2022/08/28 06:34:27;;;;;;;124.45;27.90;;;;;;;27.57;38.90;100236.34;5053004;28;20061;-75
2022/08/28 06:36:53;;;;;;;86.95;24.23;;;;;;;27.58;38.93;100239.94;5056295;28;20049;-76
2022/08/28 06:39:20;;;;;;;77.38;22.17;;;;;;;27.48;38.58;100236.75;5055143;28;20053;-75
2022/08/28 06:41:46;;;;;;;112.82;23.98;;;;;;;27.77;38.46;100236.34;5038222;28;20041;-75
2022/08/28 06:44:18;;;;;;;87.68;23.88;;;;;;;28.21;38.12;100229.28;5053539;28;20119;-75
2022/08/28 06:46:51;;;;;;;83.93;20.42;;;;;;;28.37;37.24;100229.88;5043177;28;20049;-76
2022/08/28 06:49:17;;;;;;;86.13;19.88;;;;;;;28.38;36.53;100226.91;5045873;28;20507;-75
2022/08/28 06:51:43;;;;;;;76.25;20.00;;;;;;;28.35;36.48;100229.22;5018537;28;20091;-76
2022/08/28 06:54:09;;;;;;;68.93;18.38;;;;;;;28.37;36.63;100225.22;5036006;28;20045;-76
2022/08/28 06:56:35;;;;;;;65.78;19.20;;;;;;;28.29;36.61;100220.78;5054592;28;20079;-76
2022/08/28 06:59:02;;;;;;;62.50;17.42;;;;;;;28.38;36.19;100217.81;5038461;28;20439;-74
2022/08/28 07:01:31;;;;;;;62.78;17.70;;;;;;;28.55;35.84;100222.63;5054794;28;20131;-76
2022/08/28 07:04:02;;;;;;;48.53;16.67;;;;;;;28.78;35.55;100216.56;5054502;28;20051;-75
2022/08/28 07:06:37;;;;;;;74.28;18.15;;;;;;;29.25;35.16;100217.13;5043175;28;20095;-78
2022/08/28 07:09:06;;;;;;;59.40;17.45;;;;;;;29.53;34.78;100213.94;5018614;28;20045;-77
2022/08/28 07:11:34;;;;;;;68.28;17.55;;;;;;;29.66;34.33;100215.72;5034384;28;20073;-76
2022/08/28 07:14:01;;;;;;;67.15;15.13;;;;;;;29.39;34.39;100217.84;5034579;28;20058;-76
2022/08/28 07:16:30;;;;;;;43.13;15.15;;;;;;;29.33;34.52;100212.41;5034561;28;20467;-77
2022/08/28 07:18:57;;;;;;;65.13;16.25;;;;;;;29.59;34.25;100203.09;5034340;28;20426;-76
2022/08/28 07:21:24;;;;;;;65.35;16.15;;;;;;;29.93;34.17;100218.22;5034409;28;20042;-76
2022/08/28 07:23:50;;;;;;;58.05;15.80;;;;;;;30.34;33.61;100212.06;5035444;28;20050;-75
2022/08/28 07:26:19;;;;;;;65.47;15.40;;;;;;;30.78;33.05;100214.72;5034738;28;20478;-75
2022/08/28 07:28:46;;;;;;;63.65;16.65;;;;;;;30.75;32.45;100217.94;5034210;28;20199;-75
2022/08/28 07:31:18;;;;;;;57.92;15.88;;;;;;;31.01;32.41;100220.31;5018249;28;20131;-75
2022/08/28 07:33:45;;;;;;;75.22;16.35;;;;;;;31.29;32.21;100211.34;5017700;28;20041;-76
2022/08/28 07:36:18;;;;;;;41.60;13.35;;;;;;;31.49;31.47;100210.22;5001414;28;20046;-76
2022/08/28 07:38:44;;;;;;;41.08;13.80;;;;;;;31.67;31.12;100210.13;5017530;28;20045;-76
2022/08/28 07:41:22;;;;;;;35.80;14.32;;;;;;;31.80;31.17;100207.09;5034079;28;20512;-76
2022/08/28 07:46:34;;;;;;;41.53;13.50;;;;;;;32.00;29.88;100206.75;5035371;28;20060;-76
2022/08/28 07:49:00;;;;;;;35.92;12.52;;;;;;;32.19;30.40;100204.66;5001555;28;20042;-77
2022/08/28 07:51:27;;;;;;;36.80;12.10;;;;;;;32.31;29.06;100201.84;5048895;28;20496;-77
2022/08/28 07:53:56;;;;;;;23.85;10.75;;;;;;;31.87;29.36;100202.31;5003315;28;20048;-82
2022/08/28 07:56:24;;;;;;;26.10;11.52;;;;;;;31.72;29.23;100201.94;5017262;28;20064;-76
2022/08/28 07:58:50;;;;;;;;;;;;;;;31.76;29.30;100197.59;5017706;28;20041;-75
2022/08/28 08:01:16;;;;;;;23.42;11.48;;;;;;;32.05;29.27;100195.81;5017132;28;19940;-76
2022/08/28 08:03:43;;;;;;;29.83;11.35;;;;;;;32.33;28.93;100195.00;5016901;28;20136;-75
2022/08/28 08:06:11;;;;;;;28.67;12.10;;;;;;;32.66;28.21;100192.66;5016819;28;20051;-78
2022/08/28 08:08:38;;;;;;;24.67;11.07;;;;;;;32.73;27.62;100194.19;5034775;28;20099;-75
2022/08/28 08:11:06;;;;;;;26.60;11.25;;;;;;;32.74;27.70;100183.94;5034651;28;20037;-75
2022/08/28 08:13:33;;;;;;;24.65;10.60;;;;;;;32.78;27.66;100193.44;5000749;28;20106;-75
2022/08/28 08:16:01;;;;;;;20.73;9.77;;;;;;;32.87;27.60;100189.16;5034021;28;20540;-76
2022/08/28 08:18:27;;;;;;;21.88;9.38;;;;;;;32.99;27.32;100189.16;5000631;28;20068;-76
2022/08/28 08:20:53;;;;;;;25.38;9.68;;;;;;;32.76;27.02;100193.69;5033389;28;20068;-76
2022/08/28 08:23:19;;;;;;;19.67;9.90;;;;;;;32.83;27.46;100182.44;5000630;28;20069;-75
2022/08/28 08:25:58;;;;;;;21.30;9.30;;;;;;;32.75;26.82;100180.91;5033038;28;20428;-76
2022/08/28 08:28:26;;;;;;;27.48;10.13;;;;;;;32.36;27.24;100182.63;5016784;28;20077;-75
2022/08/28 08:31:09;;;;;;;26.65;9.48;;;;;;;32.46;27.52;100176.47;5033081;28;20041;-75
2022/08/28 08:33:37;;;;;;;25.52;9.38;;;;;;;33.05;27.18;100169.56;5000313;28;20045;-76
2022/08/28 08:36:05;;;;;;;24.60;9.38;;;;;;;33.47;26.26;100171.94;5034287;28;20049;-77
2022/08/28 08:38:33;;;;;;;23.05;9.75;;;;;;;33.81;25.60;100166.34;5000380;28;20586;-76
2022/08/28 08:41:00;;;;;;;36.45;9.48;;;;;;;33.95;25.57;100172.38;5034290;28;20050;-77
2022/08/28 08:43:42;;;;;;;26.70;10.00;;;;;;;34.20;25.28;100166.34;5033256;28;20053;-76
2022/08/28 08:46:08;;;;;;;19.02;9.30;;;;;;;34.29;24.75;100168.41;5032831;28;20056;-77
2022/08/28 08:48:37;;;;;;;19.42;8.82;;;;;;;34.28;24.53;100172.28;4999978;28;20086;-76
2022/08/28 08:51:09;;;;;;;23.88;9.07;;;;;;;34.40;24.62;100163.81;5033279;28;20057;-75
2022/08/28 08:53:59;;;;;;;21.70;8.25;;;;;;;34.63;24.06;100168.25;5016396;28;20045;-77
2022/08/28 08:56:26;;;;;;;24.58;8.25;;;;;;;34.85;23.63;100173.75;5033555;28;20519;-76
2022/08/28 08:58:53;;;;;;;22.13;8.93;;;;;;;34.95;23.29;100170.25;5032407;28;20156;-76
2022/08/28 09:01:43;;;;;;;21.80;8.57;;;;;;;35.10;23.66;100164.03;5015959;28;20041;-76
2022/08/28 09:04:12;;;;;;;18.80;8.75;;;;;;;35.16;23.27;100162.97;5033937;28;20051;-75
2022/08/28 09:06:43;;;;;;;16.95;7.95;;;;;;;35.26;23.10;100168.59;5052533;28;20048;-76
2022/08/28 09:09:36;;;;;;;22.80;8.38;;;;;;;35.28;22.88;100164.47;5036027;28;20071;-75
2022/08/28 09:12:05;;;;;;;20.55;7.82;;;;;;;35.35;22.72;100161.44;5019290;28;20127;-75
2022/08/28 09:15:03;;;;;;;18.13;8.85;;;;;;;35.02;22.35;100160.63;5034388;28;20091;-76
2022/08/28 09:17:36;;;;;;;15.50;7.90;;;;;;;34.35;23.11;100161.00;5031883;28;20056;-75
2022/08/28 09:20:08;;;;;;;16.85;8.15;;;;;;;34.55;23.15;100157.63;5032103;28;20582;-75
2022/08/28 09:22:36;;;;;;;16.90;7.68;;;;;;;34.76;23.25;100150.34;5033552;28;20385;-78
2022/08/28 09:25:03;;;;;;;16.35;7.45;;;;;;;35.16;23.32;100155.44;5015822;28;20053;-78
2022/08/28 09:27:32;;;;;;;23.55;7.97;;;;;;;35.67;22.57;100149.47;5033227;28;20049;-76
2022/08/28 09:30:01;;;;;;;23.23;8.07;;;;;;;35.97;22.28;100149.63;5015658;28;20049;-76
2022/08/28 09:32:43;;;;;;;27.17;10.15;;;;;;;36.09;21.74;100143.03;5033009;28;20501;-75
2022/08/28 09:35:31;;;;;;;43.28;11.93;;;;;;;36.04;21.68;100141.06;5016551;28;20037;-76
2022/08/28 09:38:19;;;;;;;13.75;7.75;;;;;;;36.07;21.61;100136.88;5032757;28;20136;-77
2022/08/28 09:43:36;;;;;;;24.48;7.93;;;;;;;36.58;21.38;100137.91;5031906;28;20118;-74
2022/08/28 09:46:26;;;;;;;16.80;7.80;;;;;;;36.31;21.26;100137.25;5030808;28;20106;-85
2022/08/28 09:49:07;;;;;;;16.80;7.88;;;;;;;36.06;21.54;100129.66;5052840;28;20474;-75
2022/08/28 09:51:37;;;;;;;19.73;7.82;;;;;;;35.08;22.07;100124.53;5051494;28;20562;-75
2022/08/28 09:54:23;;;;;;;14.82;7.90;;;;;;;34.79;22.23;100133.13;5052163;28;20083;-75
2022/08/28 09:56:50;;;;;;;13.88;7.25;;;;;;;34.96;22.59;100130.25;5052118;28;20138;-75
2022/08/28 09:59:23;;;;;;;16.02;7.38;;;;;;;35.56;21.84;100133.81;5051401;28;20518;-75
2022/08/28 10:02:04;;;;;;;18.75;7.72;;;;;;;36.14;21.79;100127.16;5035014;28;20048;-75
2022/08/28 10:05:08;;;;;;;15.00;7.70;;;;;;;36.47;21.16;100120.34;5035040;28;20053;-76
2022/08/28 10:07:48;;;;;;;14.75;7.70;;;;;;;36.51;21.20;100117.00;5033282;28;20036;-77
2022/08/28 10:10:20;;;;;;;15.10;7.18;;;;;;;36.06;21.18;100118.53;5030153;28;20061;-75
2022/08/28 10:12:58;;;;;;;14.88;8.57;;;;;;;35.45;21.68;100121.75;4998940;28;20408;-76
2022/08/28 10:15:54;;;;;;;19.30;7.05;;;;;;;35.92;21.13;100107.88;4998650;28;20428;-76
2022/08/28 10:18:52;;;;;;;12.02;7.45;;;;;;;36.36;21.12;100107.47;5031413;28;20050;-76
2022/08/28 10:21:25;;;;;;;19.02;7.93;;;;;;;36.71;20.61;100103.09;5010208;28;20064;-75
2022/08/28 10:24:15;;;;;;;19.70;7.90;;;;;;;36.38;20.84;100102.47;5031615;28;20045;-76
2022/08/28 10:27:11;;;;;;;16.17;7.10;;;;;;;36.28;20.80;100099.66;5031384;28;20413;-76
2022/08/28 10:30:06;;;;;;;12.35;7.10;;;;;;;36.65;20.61;100096.69;5035032;28;20048;-76
2022/08/28 10:32:47;;;;;;;17.48;7.22;;;;;;;37.18;20.38;100090.88;5018211;28;20041;-75
2022/08/28 10:35:31;;;;;;;20.65;6.90;;;;;;;37.96;19.77;100095.19;5017756;28;20049;-75
2022/08/28 10:38:00;;;;;;;10.27;7.20;;;;;;;37.43;19.66;100093.66;5034543;28;20079;-76
2022/08/28 10:40:39;;;;;;;17.73;7.22;;;;;;;36.25;20.71;100080.72;5052324;28;20127;-76
2022/08/28 10:43:18;;;;;;;9.65;7.03;;;;;;;35.79;20.85;100080.53;5034780;28;20094;-76
2022/08/28 10:45:44;;;;;;;13.65;6.63;;;;;;;35.61;21.28;100084.63;5018400;28;20052;-76
2022/08/28 10:48:17;;;;;;;13.43;6.78;;;;;;;35.51;21.32;100087.38;5050841;28;20091;-76
2022/08/28 10:50:52;;;;;;;12.52;6.68;;;;;;;35.43;21.77;100087.81;5051085;28;20417;-76
2022/08/28 10:53:42;;;;;;;11.60;6.53;;;;;;;35.81;21.78;100081.13;5034582;28;20098;-76
2022/08/28 10:56:27;;;;;;;15.05;7.15;;;;;;;35.15;21.92;100078.75;5034503;28;20060;-76
2022/08/28 10:59:00;;;;;;;12.07;6.75;;;;;;;35.42;22.28;100080.59;5034699;28;20053;-76
2022/08/28 11:01:31;;;;;;;14.45;6.82;;;;;;;35.58;21.59;100050.94;5041214;28;20045;-77
2022/08/28 11:04:00;;;;;;;11.95;6.80;;;;;;;35.56;21.48;100067.91;5018075;28;20037;-75
2022/08/28 11:06:46;;;;;;;10.60;6.70;;;;;;;36.49;20.62;100075.53;5034429;28;20044;-76
2022/08/28 11:09:24;;;;;;;21.25;6.93;;;;;;;37.46;19.75;100063.50;5034689;28;20045;-75
2022/08/28 11:11:55;;;;;;;;;;;;;;;38.30;19.28;100068.19;5018151;28;20045;-76
2022/08/28 11:14:31;;;;;;;19.55;7.30;;;;;;;38.86;18.30;100070.63;5034116;28;19916;-76
2022/08/28 11:17:07;;;;;;;11.90;7.07;;;;;;;39.06;18.21;100068.75;5018998;28;20042;-77
2022/08/28 11:20:00;;;;;;;23.15;7.00;;;;;;;39.47;17.93;100054.38;5034582;28;20059;-76
2022/08/28 11:23:05;;;;;;;18.85;6.82;;;;;;;39.65;17.90;100064.81;5037729;28;20052;-76
2022/08/28 11:25:41;;;;;;;19.35;6.70;;;;;;;39.78;17.43;100055.69;5037212;28;20067;-76
2022/08/28 11:28:18;;;;;;;9.88;6.35;;;;;;;39.65;17.66;100059.22;5054177;28;20047;-77
2022/08/28 11:30:46;;;;;;;19.65;7.13;;;;;;;39.19;17.61;100051.28;5054153;28;20048;-77